sensor_id;sensor_type;location;lat;lon;timestamp;P1;durP1;ratioP1;P2;durP2;ratioP2
71464;SDS011;59274;49.874;9.154;2023-07-16T00:01:45;5.87;;;2.83;;
71464;SDS011;59274;49.874;9.154;2023-07-16T00:04:10;5.77;;;2.70;;
71464;SDS011;59274;49.874;9.154;2023-07-16T00:06:36;4.50;;;2.40;;
71464;SDS011;59274;49.874;9.154;2023-07-16T00:09:01;6.70;;;2.92;;
71464;SDS011;59274;49.874;9.154;2023-07-16T00:11:27;7.83;;;3.07;;
71464;SDS011;59274;49.874;9.154;2023-07-16T00:13:52;5.97;;;2.97;;
71464;SDS011;59274;49.874;9.154;2023-07-16T00:16:17;8.20;;;3.33;;
71464;SDS011;59274;49.874;9.154;2023-07-16T00:18:44;7.33;;;3.27;;
71464;SDS011;59274;49.874;9.154;2023-07-16T00:21:10;6.18;;;2.80;;
71464;SDS011;59274;49.874;9.154;2023-07-16T00:23:36;6.57;;;2.90;;
71464;SDS011;59274;49.874;9.154;2023-07-16T00:26:02;6.45;;;2.53;;
71464;SDS011;59274;49.874;9.154;2023-07-16T00:28:27;5.15;;;2.40;;
71464;SDS011;59274;49.874;9.154;2023-07-16T00:30:53;5.00;;;2.50;;
71464;SDS011;59274;49.874;9.154;2023-07-16T00:33:18;5.63;;;2.37;;
71464;SDS011;59274;49.874;9.154;2023-07-16T00:35:47;5.88;;;2.58;;
71464;SDS011;59274;49.874;9.154;2023-07-16T00:38:14;4.97;;;2.50;;
71464;SDS011;59274;49.874;9.154;2023-07-16T00:40:39;5.00;;;2.40;;
71464;SDS011;59274;49.874;9.154;2023-07-16T00:43:05;5.03;;;2.20;;
71464;SDS011;59274;49.874;9.154;2023-07-16T00:45:30;4.83;;;2.30;;
71464;SDS011;59274;49.874;9.154;2023-07-16T00:47:56;5.00;;;2.22;;
71464;SDS011;59274;49.874;9.154;2023-07-16T00:50:22;7.03;;;2.33;;
71464;SDS011;59274;49.874;9.154;2023-07-16T00:52:48;6.55;;;2.50;;
71464;SDS011;59274;49.874;9.154;2023-07-16T00:55:13;6.37;;;2.63;;
71464;SDS011;59274;49.874;9.154;2023-07-16T00:57:42;4.20;;;2.10;;
71464;SDS011;59274;49.874;9.154;2023-07-16T01:00:08;3.90;;;1.90;;
71464;SDS011;59274;49.874;9.154;2023-07-16T01:02:35;3.95;;;1.83;;
71464;SDS011;59274;49.874;9.154;2023-07-16T01:05:00;6.93;;;2.20;;
71464;SDS011;59274;49.874;9.154;2023-07-16T01:07:27;3.78;;;1.85;;
71464;SDS011;59274;49.874;9.154;2023-07-16T01:09:55;3.73;;;1.70;;
71464;SDS011;59274;49.874;9.154;2023-07-16T01:12:22;4.03;;;1.80;;
71464;SDS011;59274;49.874;9.154;2023-07-16T01:14:48;6.95;;;1.75;;
71464;SDS011;59274;49.874;9.154;2023-07-16T01:17:16;5.03;;;1.92;;
71464;SDS011;59274;49.874;9.154;2023-07-16T01:19:41;4.50;;;2.10;;
71464;SDS011;59274;49.874;9.154;2023-07-16T01:23:09;4.87;;;1.70;;
71464;SDS011;59274;49.874;9.154;2023-07-16T01:28:21;4.80;;;1.73;;
71464;SDS011;59274;49.874;9.154;2023-07-16T01:31:06;5.32;;;1.77;;
71464;SDS011;59274;49.874;9.154;2023-07-16T01:33:34;4.65;;;1.73;;
71464;SDS011;59274;49.874;9.154;2023-07-16T01:36:00;5.10;;;2.00;;
71464;SDS011;59274;49.874;9.154;2023-07-16T01:38:26;6.35;;;1.60;;
71464;SDS011;59274;49.874;9.154;2023-07-16T01:40:52;3.38;;;1.70;;
71464;SDS011;59274;49.874;9.154;2023-07-16T01:43:17;4.23;;;1.83;;
71464;SDS011;59274;49.874;9.154;2023-07-16T01:45:42;4.10;;;1.60;;
71464;SDS011;59274;49.874;9.154;2023-07-16T01:48:12;3.47;;;1.35;;
71464;SDS011;59274;49.874;9.154;2023-07-16T01:50:48;4.65;;;1.33;;
71464;SDS011;59274;49.874;9.154;2023-07-16T01:53:14;3.70;;;1.40;;
71464;SDS011;59274;49.874;9.154;2023-07-16T01:55:39;3.00;;;1.60;;
71464;SDS011;59274;49.874;9.154;2023-07-16T01:58:05;2.03;;;1.33;;
71464;SDS011;59274;49.874;9.154;2023-07-16T02:00:30;2.92;;;1.45;;
71464;SDS011;59274;49.874;9.154;2023-07-16T02:02:57;4.78;;;1.80;;
71464;SDS011;59274;49.874;9.154;2023-07-16T02:05:22;5.23;;;1.40;;
71464;SDS011;59274;49.874;9.154;2023-07-16T02:07:47;3.67;;;1.50;;
71464;SDS011;59274;49.874;9.154;2023-07-16T02:10:13;4.30;;;1.73;;
71464;SDS011;59274;49.874;9.154;2023-07-16T02:12:38;4.20;;;1.53;;
71464;SDS011;59274;49.874;9.154;2023-07-16T02:15:04;3.23;;;1.60;;
71464;SDS011;59274;49.874;9.154;2023-07-16T02:17:30;2.78;;;1.30;;
71464;SDS011;59274;49.874;9.154;2023-07-16T02:19:55;4.87;;;1.37;;
71464;SDS011;59274;49.874;9.154;2023-07-16T02:22:20;3.60;;;1.40;;
71464;SDS011;59274;49.874;9.154;2023-07-16T02:24:46;3.47;;;1.53;;
71464;SDS011;59274;49.874;9.154;2023-07-16T02:27:11;3.90;;;1.63;;
71464;SDS011;59274;49.874;9.154;2023-07-16T02:29:37;3.00;;;1.60;;
71464;SDS011;59274;49.874;9.154;2023-07-16T02:32:02;4.63;;;1.60;;
71464;SDS011;59274;49.874;9.154;2023-07-16T02:34:28;2.88;;;1.63;;
71464;SDS011;59274;49.874;9.154;2023-07-16T02:36:53;3.10;;;1.50;;
71464;SDS011;59274;49.874;9.154;2023-07-16T02:39:18;3.40;;;1.50;;
71464;SDS011;59274;49.874;9.154;2023-07-16T02:41:44;3.28;;;1.40;;
71464;SDS011;59274;49.874;9.154;2023-07-16T02:44:09;3.20;;;1.30;;
71464;SDS011;59274;49.874;9.154;2023-07-16T02:46:35;5.67;;;1.50;;
71464;SDS011;59274;49.874;9.154;2023-07-16T02:49:01;7.70;;;1.70;;
71464;SDS011;59274;49.874;9.154;2023-07-16T02:51:27;3.70;;;1.50;;
71464;SDS011;59274;49.874;9.154;2023-07-16T02:53:53;3.33;;;1.60;;
71464;SDS011;59274;49.874;9.154;2023-07-16T02:56:18;8.65;;;1.77;;
71464;SDS011;59274;49.874;9.154;2023-07-16T02:58:44;4.05;;;1.70;;
71464;SDS011;59274;49.874;9.154;2023-07-16T03:01:09;4.90;;;1.53;;
71464;SDS011;59274;49.874;9.154;2023-07-16T03:03:36;2.95;;;1.38;;
71464;SDS011;59274;49.874;9.154;2023-07-16T03:06:02;4.00;;;1.30;;
71464;SDS011;59274;49.874;9.154;2023-07-16T03:08:27;4.88;;;1.50;;
71464;SDS011;59274;49.874;9.154;2023-07-16T03:10:55;6.32;;;1.80;;
71464;SDS011;59274;49.874;9.154;2023-07-16T03:13:21;4.77;;;1.60;;
71464;SDS011;59274;49.874;9.154;2023-07-16T03:15:47;5.75;;;2.00;;
71464;SDS011;59274;49.874;9.154;2023-07-16T03:18:12;3.97;;;1.77;;
71464;SDS011;59274;49.874;9.154;2023-07-16T03:20:37;4.60;;;1.87;;
71464;SDS011;59274;49.874;9.154;2023-07-16T03:23:03;6.27;;;1.90;;
71464;SDS011;59274;49.874;9.154;2023-07-16T03:25:28;5.65;;;1.58;;
71464;SDS011;59274;49.874;9.154;2023-07-16T03:27:54;6.77;;;1.53;;
71464;SDS011;59274;49.874;9.154;2023-07-16T03:30:19;3.37;;;1.60;;
71464;SDS011;59274;49.874;9.154;2023-07-16T03:32:44;5.20;;;1.90;;
71464;SDS011;59274;49.874;9.154;2023-07-16T03:35:10;3.70;;;1.70;;
71464;SDS011;59274;49.874;9.154;2023-07-16T03:37:35;4.20;;;1.40;;
71464;SDS011;59274;49.874;9.154;2023-07-16T03:40:12;4.30;;;1.40;;
71464;SDS011;59274;49.874;9.154;2023-07-16T03:42:41;5.43;;;1.58;;
71464;SDS011;59274;49.874;9.154;2023-07-16T03:45:07;6.37;;;1.70;;
71464;SDS011;59274;49.874;9.154;2023-07-16T03:47:34;4.60;;;1.60;;
71464;SDS011;59274;49.874;9.154;2023-07-16T03:49:59;5.60;;;1.83;;
71464;SDS011;59274;49.874;9.154;2023-07-16T03:52:25;7.07;;;2.00;;
71464;SDS011;59274;49.874;9.154;2023-07-16T03:54:51;4.60;;;1.80;;
71464;SDS011;59274;49.874;9.154;2023-07-16T03:57:16;4.72;;;1.90;;
71464;SDS011;59274;49.874;9.154;2023-07-16T03:59:42;3.93;;;1.77;;
71464;SDS011;59274;49.874;9.154;2023-07-16T04:02:08;4.10;;;1.93;;
71464;SDS011;59274;49.874;9.154;2023-07-16T04:04:33;6.72;;;2.00;;
71464;SDS011;59274;49.874;9.154;2023-07-16T04:06:59;5.43;;;2.10;;
71464;SDS011;59274;49.874;9.154;2023-07-16T04:09:24;5.60;;;1.97;;
71464;SDS011;59274;49.874;9.154;2023-07-16T04:11:50;5.68;;;1.88;;
71464;SDS011;59274;49.874;9.154;2023-07-16T04:14:15;5.50;;;1.90;;
71464;SDS011;59274;49.874;9.154;2023-07-16T04:16:41;3.07;;;1.80;;
71464;SDS011;59274;49.874;9.154;2023-07-16T04:19:06;4.05;;;1.90;;
71464;SDS011;59274;49.874;9.154;2023-07-16T04:21:33;7.40;;;1.90;;
71464;SDS011;59274;49.874;9.154;2023-07-16T04:23:59;4.80;;;2.10;;
71464;SDS011;59274;49.874;9.154;2023-07-16T04:26:24;4.43;;;2.00;;
71464;SDS011;59274;49.874;9.154;2023-07-16T04:28:49;4.53;;;1.90;;
71464;SDS011;59274;49.874;9.154;2023-07-16T04:31:15;6.37;;;2.20;;
71464;SDS011;59274;49.874;9.154;2023-07-16T04:33:40;5.53;;;2.07;;
71464;SDS011;59274;49.874;9.154;2023-07-16T04:36:05;7.80;;;1.97;;
71464;SDS011;59274;49.874;9.154;2023-07-16T04:38:31;3.47;;;1.75;;
71464;SDS011;59274;49.874;9.154;2023-07-16T04:40:56;4.13;;;1.67;;
71464;SDS011;59274;49.874;9.154;2023-07-16T04:43:22;7.77;;;2.10;;
71464;SDS011;59274;49.874;9.154;2023-07-16T04:45:47;4.07;;;1.57;;
71464;SDS011;59274;49.874;9.154;2023-07-16T04:48:12;4.83;;;1.60;;
71464;SDS011;59274;49.874;9.154;2023-07-16T04:50:38;4.57;;;1.85;;
71464;SDS011;59274;49.874;9.154;2023-07-16T04:53:04;4.37;;;1.70;;
71464;SDS011;59274;49.874;9.154;2023-07-16T04:55:34;4.95;;;1.67;;
71464;SDS011;59274;49.874;9.154;2023-07-16T04:58:01;6.10;;;1.45;;
71464;SDS011;59274;49.874;9.154;2023-07-16T05:00:26;4.13;;;1.67;;
71464;SDS011;59274;49.874;9.154;2023-07-16T05:02:51;6.07;;;2.00;;
71464;SDS011;59274;49.874;9.154;2023-07-16T05:05:17;4.60;;;1.50;;
71464;SDS011;59274;49.874;9.154;2023-07-16T05:07:42;3.97;;;1.70;;
71464;SDS011;59274;49.874;9.154;2023-07-16T05:10:08;5.32;;;1.60;;
71464;SDS011;59274;49.874;9.154;2023-07-16T05:12:34;6.63;;;2.00;;
71464;SDS011;59274;49.874;9.154;2023-07-16T05:14:59;3.60;;;1.65;;
71464;SDS011;59274;49.874;9.154;2023-07-16T05:17:24;4.38;;;1.70;;
71464;SDS011;59274;49.874;9.154;2023-07-16T05:19:50;4.10;;;1.53;;
71464;SDS011;59274;49.874;9.154;2023-07-16T05:22:15;6.17;;;1.73;;
71464;SDS011;59274;49.874;9.154;2023-07-16T05:24:41;5.00;;;1.60;;
71464;SDS011;59274;49.874;9.154;2023-07-16T05:27:06;3.63;;;1.43;;
71464;SDS011;59274;49.874;9.154;2023-07-16T05:29:32;7.35;;;1.67;;
71464;SDS011;59274;49.874;9.154;2023-07-16T05:31:57;4.57;;;1.70;;
71464;SDS011;59274;49.874;9.154;2023-07-16T05:34:22;3.30;;;1.47;;
71464;SDS011;59274;49.874;9.154;2023-07-16T05:36:48;6.43;;;1.70;;
71464;SDS011;59274;49.874;9.154;2023-07-16T05:39:13;8.30;;;1.73;;
71464;SDS011;59274;49.874;9.154;2023-07-16T05:41:39;8.40;;;1.60;;
71464;SDS011;59274;49.874;9.154;2023-07-16T05:44:05;3.85;;;1.67;;
71464;SDS011;59274;49.874;9.154;2023-07-16T05:46:30;7.43;;;1.50;;
71464;SDS011;59274;49.874;9.154;2023-07-16T05:48:56;3.30;;;1.43;;
71464;SDS011;59274;49.874;9.154;2023-07-16T05:51:21;4.93;;;1.67;;
71464;SDS011;59274;49.874;9.154;2023-07-16T05:53:47;4.55;;;1.60;;
71464;SDS011;59274;49.874;9.154;2023-07-16T05:56:12;5.30;;;1.63;;
71464;SDS011;59274;49.874;9.154;2023-07-16T05:58:39;8.07;;;1.53;;
71464;SDS011;59274;49.874;9.154;2023-07-16T06:01:05;2.50;;;1.50;;
71464;SDS011;59274;49.874;9.154;2023-07-16T06:03:30;4.80;;;1.60;;
71464;SDS011;59274;49.874;9.154;2023-07-16T06:05:56;5.53;;;1.60;;
71464;SDS011;59274;49.874;9.154;2023-07-16T06:08:21;4.80;;;1.58;;
71464;SDS011;59274;49.874;9.154;2023-07-16T06:10:47;5.67;;;1.77;;
71464;SDS011;59274;49.874;9.154;2023-07-16T06:13:13;4.03;;;1.80;;
71464;SDS011;59274;49.874;9.154;2023-07-16T06:15:38;3.90;;;1.57;;
71464;SDS011;59274;49.874;9.154;2023-07-16T06:18:03;6.13;;;1.80;;
71464;SDS011;59274;49.874;9.154;2023-07-16T06:20:29;7.97;;;2.00;;
71464;SDS011;59274;49.874;9.154;2023-07-16T06:22:54;3.40;;;1.65;;
71464;SDS011;59274;49.874;9.154;2023-07-16T06:25:20;6.07;;;1.48;;
71464;SDS011;59274;49.874;9.154;2023-07-16T06:27:45;4.07;;;1.40;;
71464;SDS011;59274;49.874;9.154;2023-07-16T06:30:12;5.63;;;1.90;;
71464;SDS011;59274;49.874;9.154;2023-07-16T06:32:38;6.70;;;1.77;;
71464;SDS011;59274;49.874;9.154;2023-07-16T06:35:03;5.03;;;1.40;;
71464;SDS011;59274;49.874;9.154;2023-07-16T06:37:29;5.43;;;1.90;;
71464;SDS011;59274;49.874;9.154;2023-07-16T06:39:54;5.70;;;1.70;;
71464;SDS011;59274;49.874;9.154;2023-07-16T06:42:20;7.15;;;1.80;;
71464;SDS011;59274;49.874;9.154;2023-07-16T06:44:45;4.67;;;1.70;;
71464;SDS011;59274;49.874;9.154;2023-07-16T06:47:11;6.30;;;1.90;;
71464;SDS011;59274;49.874;9.154;2023-07-16T06:49:36;4.90;;;1.67;;
71464;SDS011;59274;49.874;9.154;2023-07-16T06:52:02;6.65;;;1.80;;
71464;SDS011;59274;49.874;9.154;2023-07-16T06:54:27;5.28;;;1.80;;
71464;SDS011;59274;49.874;9.154;2023-07-16T06:56:53;7.05;;;1.88;;
71464;SDS011;59274;49.874;9.154;2023-07-16T06:59:19;3.27;;;1.67;;
71464;SDS011;59274;49.874;9.154;2023-07-16T07:01:44;5.00;;;1.70;;
71464;SDS011;59274;49.874;9.154;2023-07-16T07:04:10;5.37;;;1.70;;
71464;SDS011;59274;49.874;9.154;2023-07-16T07:06:35;5.13;;;1.90;;
71464;SDS011;59274;49.874;9.154;2023-07-16T07:09:00;5.93;;;1.70;;
71464;SDS011;59274;49.874;9.154;2023-07-16T07:11:26;5.70;;;1.77;;
71464;SDS011;59274;49.874;9.154;2023-07-16T07:13:52;6.30;;;1.90;;
71464;SDS011;59274;49.874;9.154;2023-07-16T07:16:17;6.13;;;1.95;;
71464;SDS011;59274;49.874;9.154;2023-07-16T07:18:43;5.17;;;1.73;;
71464;SDS011;59274;49.874;9.154;2023-07-16T07:21:08;7.03;;;1.63;;
71464;SDS011;59274;49.874;9.154;2023-07-16T07:23:34;3.80;;;1.98;;
71464;SDS011;59274;49.874;9.154;2023-07-16T07:25:59;5.33;;;1.63;;
71464;SDS011;59274;49.874;9.154;2023-07-16T07:28:25;7.03;;;1.70;;
71464;SDS011;59274;49.874;9.154;2023-07-16T07:30:50;6.63;;;1.83;;
71464;SDS011;59274;49.874;9.154;2023-07-16T07:33:16;4.73;;;1.60;;
71464;SDS011;59274;49.874;9.154;2023-07-16T07:35:41;5.30;;;1.70;;
71464;SDS011;59274;49.874;9.154;2023-07-16T07:38:07;3.80;;;1.50;;
71464;SDS011;59274;49.874;9.154;2023-07-16T07:40:32;5.55;;;1.80;;
71464;SDS011;59274;49.874;9.154;2023-07-16T07:42:57;5.57;;;1.75;;
71464;SDS011;59274;49.874;9.154;2023-07-16T07:45:23;5.53;;;1.77;;
71464;SDS011;59274;49.874;9.154;2023-07-16T07:47:49;6.28;;;2.00;;
71464;SDS011;59274;49.874;9.154;2023-07-16T07:50:15;7.23;;;1.70;;
71464;SDS011;59274;49.874;9.154;2023-07-16T07:52:40;4.30;;;1.73;;
71464;SDS011;59274;49.874;9.154;2023-07-16T07:55:06;6.28;;;1.42;;
71464;SDS011;59274;49.874;9.154;2023-07-16T07:57:31;7.83;;;1.70;;
71464;SDS011;59274;49.874;9.154;2023-07-16T07:59:57;4.67;;;1.80;;
71464;SDS011;59274;49.874;9.154;2023-07-16T08:02:23;3.40;;;1.60;;
71464;SDS011;59274;49.874;9.154;2023-07-16T08:04:52;4.43;;;1.70;;
71464;SDS011;59274;49.874;9.154;2023-07-16T08:07:19;4.37;;;1.70;;
71464;SDS011;59274;49.874;9.154;2023-07-16T08:09:45;7.03;;;1.80;;
71464;SDS011;59274;49.874;9.154;2023-07-16T08:12:11;5.63;;;1.70;;
71464;SDS011;59274;49.874;9.154;2023-07-16T08:14:36;5.80;;;1.80;;
71464;SDS011;59274;49.874;9.154;2023-07-16T08:17:02;6.70;;;1.90;;
71464;SDS011;59274;49.874;9.154;2023-07-16T08:19:27;5.70;;;1.88;;
71464;SDS011;59274;49.874;9.154;2023-07-16T08:21:52;5.13;;;1.75;;
71464;SDS011;59274;49.874;9.154;2023-07-16T08:24:18;4.70;;;1.70;;
71464;SDS011;59274;49.874;9.154;2023-07-16T08:26:43;4.77;;;1.60;;
71464;SDS011;59274;49.874;9.154;2023-07-16T08:29:09;4.35;;;1.58;;
71464;SDS011;59274;49.874;9.154;2023-07-16T08:31:35;4.93;;;1.83;;
71464;SDS011;59274;49.874;9.154;2023-07-16T08:34:00;5.97;;;1.77;;
71464;SDS011;59274;49.874;9.154;2023-07-16T08:36:25;4.03;;;1.60;;
71464;SDS011;59274;49.874;9.154;2023-07-16T08:38:51;4.20;;;1.70;;
71464;SDS011;59274;49.874;9.154;2023-07-16T08:41:17;4.03;;;1.70;;
71464;SDS011;59274;49.874;9.154;2023-07-16T08:43:43;6.97;;;2.65;;
71464;SDS011;59274;49.874;9.154;2023-07-16T08:46:12;6.75;;;1.90;;
71464;SDS011;59274;49.874;9.154;2023-07-16T08:48:39;5.53;;;1.70;;
71464;SDS011;59274;49.874;9.154;2023-07-16T08:51:05;4.57;;;1.63;;
71464;SDS011;59274;49.874;9.154;2023-07-16T08:53:32;5.88;;;1.60;;
71464;SDS011;59274;49.874;9.154;2023-07-16T08:55:58;3.40;;;1.60;;
71464;SDS011;59274;49.874;9.154;2023-07-16T08:58:24;5.72;;;1.90;;
71464;SDS011;59274;49.874;9.154;2023-07-16T09:00:49;5.00;;;1.80;;
71464;SDS011;59274;49.874;9.154;2023-07-16T09:03:16;6.32;;;1.65;;
71464;SDS011;59274;49.874;9.154;2023-07-16T09:05:44;4.75;;;2.00;;
71464;SDS011;59274;49.874;9.154;2023-07-16T09:08:09;4.13;;;1.80;;
71464;SDS011;59274;49.874;9.154;2023-07-16T09:10:35;4.78;;;1.80;;
71464;SDS011;59274;49.874;9.154;2023-07-16T09:13:01;5.13;;;1.95;;
71464;SDS011;59274;49.874;9.154;2023-07-16T09:15:28;6.20;;;1.90;;
71464;SDS011;59274;49.874;9.154;2023-07-16T09:17:54;6.30;;;1.77;;
71464;SDS011;59274;49.874;9.154;2023-07-16T09:20:20;4.95;;;1.70;;
71464;SDS011;59274;49.874;9.154;2023-07-16T09:22:48;4.68;;;1.77;;
71464;SDS011;59274;49.874;9.154;2023-07-16T09:25:15;5.50;;;2.30;;
71464;SDS011;59274;49.874;9.154;2023-07-16T09:27:40;3.83;;;1.70;;
71464;SDS011;59274;49.874;9.154;2023-07-16T09:30:06;4.70;;;1.77;;
71464;SDS011;59274;49.874;9.154;2023-07-16T09:32:34;6.68;;;2.03;;
71464;SDS011;59274;49.874;9.154;2023-07-16T09:35:00;5.47;;;1.70;;
71464;SDS011;59274;49.874;9.154;2023-07-16T09:37:31;3.53;;;1.70;;
71464;SDS011;59274;49.874;9.154;2023-07-16T09:39:56;3.88;;;1.70;;
71464;SDS011;59274;49.874;9.154;2023-07-16T09:42:22;3.80;;;1.70;;
71464;SDS011;59274;49.874;9.154;2023-07-16T09:44:49;5.32;;;1.60;;
71464;SDS011;59274;49.874;9.154;2023-07-16T09:47:18;4.55;;;1.60;;
71464;SDS011;59274;49.874;9.154;2023-07-16T09:49:43;6.53;;;1.73;;
71464;SDS011;59274;49.874;9.154;2023-07-16T09:52:10;5.07;;;1.80;;
71464;SDS011;59274;49.874;9.154;2023-07-16T09:54:38;7.00;;;1.95;;
71464;SDS011;59274;49.874;9.154;2023-07-16T09:57:05;5.50;;;1.70;;
71464;SDS011;59274;49.874;9.154;2023-07-16T09:59:33;5.90;;;1.60;;
71464;SDS011;59274;49.874;9.154;2023-07-16T10:01:59;6.22;;;1.77;;
71464;SDS011;59274;49.874;9.154;2023-07-16T10:04:25;5.07;;;1.50;;
71464;SDS011;59274;49.874;9.154;2023-07-16T10:14:42;9.45;;;1.90;;
71464;SDS011;59274;49.874;9.154;2023-07-16T10:17:15;7.22;;;1.90;;
71464;SDS011;59274;49.874;9.154;2023-07-16T10:22:30;6.18;;;1.83;;
71464;SDS011;59274;49.874;9.154;2023-07-16T10:27:44;5.82;;;1.70;;
71464;SDS011;59274;49.874;9.154;2023-07-16T10:30:11;6.10;;;1.65;;
71464;SDS011;59274;49.874;9.154;2023-07-16T10:32:36;4.57;;;1.83;;
71464;SDS011;59274;49.874;9.154;2023-07-16T10:35:03;4.67;;;1.60;;
71464;SDS011;59274;49.874;9.154;2023-07-16T10:37:30;4.50;;;1.77;;
71464;SDS011;59274;49.874;9.154;2023-07-16T10:39:57;5.93;;;1.90;;
71464;SDS011;59274;49.874;9.154;2023-07-16T10:42:24;3.05;;;1.48;;
71464;SDS011;59274;49.874;9.154;2023-07-16T10:44:54;4.72;;;1.98;;
71464;SDS011;59274;49.874;9.154;2023-07-16T10:47:23;3.88;;;1.60;;
71464;SDS011;59274;49.874;9.154;2023-07-16T10:49:50;3.58;;;1.70;;
71464;SDS011;59274;49.874;9.154;2023-07-16T10:52:19;5.28;;;1.58;;
71464;SDS011;59274;49.874;9.154;2023-07-16T10:54:49;4.00;;;1.50;;
71464;SDS011;59274;49.874;9.154;2023-07-16T10:57:29;3.75;;;1.55;;
71464;SDS011;59274;49.874;9.154;2023-07-16T10:59:55;3.53;;;1.38;;
71464;SDS011;59274;49.874;9.154;2023-07-16T11:02:22;5.10;;;1.75;;
71464;SDS011;59274;49.874;9.154;2023-07-16T11:04:49;4.40;;;1.50;;
71464;SDS011;59274;49.874;9.154;2023-07-16T11:07:18;5.13;;;1.90;;
71464;SDS011;59274;49.874;9.154;2023-07-16T11:09:47;4.68;;;1.80;;
71464;SDS011;59274;49.874;9.154;2023-07-16T11:12:18;4.40;;;1.70;;
71464;SDS011;59274;49.874;9.154;2023-07-16T11:14:46;5.13;;;1.75;;
71464;SDS011;59274;49.874;9.154;2023-07-16T11:17:14;7.07;;;1.77;;
71464;SDS011;59274;49.874;9.154;2023-07-16T11:19:40;3.97;;;1.65;;
71464;SDS011;59274;49.874;9.154;2023-07-16T11:22:09;4.15;;;1.42;;
71464;SDS011;59274;49.874;9.154;2023-07-16T11:24:38;5.40;;;1.80;;
71464;SDS011;59274;49.874;9.154;2023-07-16T11:27:17;5.55;;;1.70;;
71464;SDS011;59274;49.874;9.154;2023-07-16T11:29:47;3.58;;;1.70;;
71464;SDS011;59274;49.874;9.154;2023-07-16T11:35:00;3.53;;;1.60;;
71464;SDS011;59274;49.874;9.154;2023-07-16T11:37:28;5.65;;;1.60;;
71464;SDS011;59274;49.874;9.154;2023-07-16T11:40:04;4.05;;;1.70;;
71464;SDS011;59274;49.874;9.154;2023-07-16T11:42:36;4.85;;;1.67;;
71464;SDS011;59274;49.874;9.154;2023-07-16T11:45:03;5.47;;;1.90;;
71464;SDS011;59274;49.874;9.154;2023-07-16T11:47:29;5.83;;;1.90;;
71464;SDS011;59274;49.874;9.154;2023-07-16T11:49:56;4.00;;;1.77;;
71464;SDS011;59274;49.874;9.154;2023-07-16T11:52:26;4.20;;;1.95;;
71464;SDS011;59274;49.874;9.154;2023-07-16T11:54:53;5.15;;;1.70;;
71464;SDS011;59274;49.874;9.154;2023-07-16T11:57:19;5.90;;;1.80;;
71464;SDS011;59274;49.874;9.154;2023-07-16T11:59:44;6.47;;;1.83;;
71464;SDS011;59274;49.874;9.154;2023-07-16T12:02:10;4.43;;;2.00;;
71464;SDS011;59274;49.874;9.154;2023-07-16T12:04:36;4.82;;;1.80;;
71464;SDS011;59274;49.874;9.154;2023-07-16T12:07:02;5.55;;;1.98;;
71464;SDS011;59274;49.874;9.154;2023-07-16T12:09:27;4.25;;;2.10;;
71464;SDS011;59274;49.874;9.154;2023-07-16T12:11:53;3.93;;;1.70;;
71464;SDS011;59274;49.874;9.154;2023-07-16T12:14:18;5.25;;;1.88;;
71464;SDS011;59274;49.874;9.154;2023-07-16T12:16:44;4.93;;;1.90;;
71464;SDS011;59274;49.874;9.154;2023-07-16T12:19:09;6.37;;;2.00;;
71464;SDS011;59274;49.874;9.154;2023-07-16T12:21:35;3.78;;;2.00;;
71464;SDS011;59274;49.874;9.154;2023-07-16T12:24:01;5.33;;;1.90;;
71464;SDS011;59274;49.874;9.154;2023-07-16T12:26:27;6.63;;;2.30;;
71464;SDS011;59274;49.874;9.154;2023-07-16T12:28:53;5.65;;;2.05;;
71464;SDS011;59274;49.874;9.154;2023-07-16T12:31:18;3.08;;;1.70;;
71464;SDS011;59274;49.874;9.154;2023-07-16T12:33:45;6.32;;;2.20;;
71464;SDS011;59274;49.874;9.154;2023-07-16T12:36:11;5.07;;;2.00;;
71464;SDS011;59274;49.874;9.154;2023-07-16T12:38:37;7.00;;;2.10;;
71464;SDS011;59274;49.874;9.154;2023-07-16T12:41:02;5.13;;;2.00;;
71464;SDS011;59274;49.874;9.154;2023-07-16T12:43:29;4.47;;;1.83;;
71464;SDS011;59274;49.874;9.154;2023-07-16T12:45:54;5.38;;;1.88;;
71464;SDS011;59274;49.874;9.154;2023-07-16T12:48:20;4.07;;;1.93;;
71464;SDS011;59274;49.874;9.154;2023-07-16T12:50:45;5.23;;;2.00;;
71464;SDS011;59274;49.874;9.154;2023-07-16T12:53:11;5.80;;;2.00;;
71464;SDS011;59274;49.874;9.154;2023-07-16T12:55:37;3.72;;;1.80;;
71464;SDS011;59274;49.874;9.154;2023-07-16T12:58:03;6.57;;;2.23;;
71464;SDS011;59274;49.874;9.154;2023-07-16T13:00:28;4.67;;;2.10;;
71464;SDS011;59274;49.874;9.154;2023-07-16T13:02:54;6.10;;;2.00;;
71464;SDS011;59274;49.874;9.154;2023-07-16T13:05:19;5.25;;;2.10;;
71464;SDS011;59274;49.874;9.154;2023-07-16T13:07:45;3.93;;;1.90;;
71464;SDS011;59274;49.874;9.154;2023-07-16T13:10:11;4.43;;;1.77;;
71464;SDS011;59274;49.874;9.154;2023-07-16T13:12:36;5.97;;;2.30;;
71464;SDS011;59274;49.874;9.154;2023-07-16T13:15:02;5.30;;;2.00;;
71464;SDS011;59274;49.874;9.154;2023-07-16T13:17:27;6.93;;;2.40;;
71464;SDS011;59274;49.874;9.154;2023-07-16T13:19:53;5.87;;;2.23;;
71464;SDS011;59274;49.874;9.154;2023-07-16T13:22:18;6.23;;;2.33;;
71464;SDS011;59274;49.874;9.154;2023-07-16T13:24:44;6.40;;;2.03;;
71464;SDS011;59274;49.874;9.154;2023-07-16T13:27:09;4.47;;;1.70;;
71464;SDS011;59274;49.874;9.154;2023-07-16T13:29:44;5.97;;;2.13;;
71464;SDS011;59274;49.874;9.154;2023-07-16T13:32:10;5.07;;;2.30;;
71464;SDS011;59274;49.874;9.154;2023-07-16T13:34:35;6.27;;;1.90;;
71464;SDS011;59274;49.874;9.154;2023-07-16T13:37:01;3.17;;;1.80;;
71464;SDS011;59274;49.874;9.154;2023-07-16T13:39:26;5.93;;;2.20;;
71464;SDS011;59274;49.874;9.154;2023-07-16T13:41:51;5.20;;;2.28;;
71464;SDS011;59274;49.874;9.154;2023-07-16T13:44:17;4.17;;;2.13;;
71464;SDS011;59274;49.874;9.154;2023-07-16T13:46:42;5.77;;;2.30;;
71464;SDS011;59274;49.874;9.154;2023-07-16T13:49:08;6.70;;;2.50;;
71464;SDS011;59274;49.874;9.154;2023-07-16T13:51:33;5.90;;;2.33;;
71464;SDS011;59274;49.874;9.154;2023-07-16T13:53:59;4.57;;;2.40;;
71464;SDS011;59274;49.874;9.154;2023-07-16T13:56:24;4.77;;;2.03;;
71464;SDS011;59274;49.874;9.154;2023-07-16T13:58:50;5.73;;;2.50;;
71464;SDS011;59274;49.874;9.154;2023-07-16T14:01:15;5.73;;;2.30;;
71464;SDS011;59274;49.874;9.154;2023-07-16T14:03:41;6.15;;;2.38;;
71464;SDS011;59274;49.874;9.154;2023-07-16T14:06:07;4.57;;;2.30;;
71464;SDS011;59274;49.874;9.154;2023-07-16T14:08:32;5.10;;;2.40;;
71464;SDS011;59274;49.874;9.154;2023-07-16T14:10:59;5.95;;;2.50;;
71464;SDS011;59274;49.874;9.154;2023-07-16T14:13:24;5.72;;;2.17;;
71464;SDS011;59274;49.874;9.154;2023-07-16T14:15:50;4.93;;;2.33;;
71464;SDS011;59274;49.874;9.154;2023-07-16T14:18:15;4.40;;;1.93;;
71464;SDS011;59274;49.874;9.154;2023-07-16T14:20:41;4.53;;;2.10;;
71464;SDS011;59274;49.874;9.154;2023-07-16T14:23:06;5.15;;;2.10;;
71464;SDS011;59274;49.874;9.154;2023-07-16T14:25:32;5.27;;;2.30;;
71464;SDS011;59274;49.874;9.154;2023-07-16T14:27:57;4.93;;;2.50;;
71464;SDS011;59274;49.874;9.154;2023-07-16T14:30:23;4.90;;;2.13;;
71464;SDS011;59274;49.874;9.154;2023-07-16T14:32:48;5.13;;;2.40;;
71464;SDS011;59274;49.874;9.154;2023-07-16T14:35:13;4.90;;;2.30;;
71464;SDS011;59274;49.874;9.154;2023-07-16T14:37:39;3.67;;;2.33;;
71464;SDS011;59274;49.874;9.154;2023-07-16T14:40:04;4.10;;;2.30;;
71464;SDS011;59274;49.874;9.154;2023-07-16T14:42:33;5.47;;;2.30;;
71464;SDS011;59274;49.874;9.154;2023-07-16T14:44:58;4.27;;;2.10;;
71464;SDS011;59274;49.874;9.154;2023-07-16T14:47:23;4.83;;;2.00;;
71464;SDS011;59274;49.874;9.154;2023-07-16T14:49:49;4.37;;;2.50;;
71464;SDS011;59274;49.874;9.154;2023-07-16T14:52:14;5.33;;;2.40;;
71464;SDS011;59274;49.874;9.154;2023-07-16T14:54:40;5.78;;;2.45;;
71464;SDS011;59274;49.874;9.154;2023-07-16T14:57:06;4.23;;;2.30;;
71464;SDS011;59274;49.874;9.154;2023-07-16T14:59:31;3.83;;;2.20;;
71464;SDS011;59274;49.874;9.154;2023-07-16T15:01:57;5.63;;;2.50;;